Time;durP1;ratioP1;P1;durP2;ratioP2;P2;SDS_P1;SDS_P2;PMS_P1;PMS_P2;Temp;Humidity;BMP_temperature;BMP_pressure;BME280_temperature;BME280_humidity;BME280_pressure;Samples;Min_cycle;Max_cycle;Signal;HPM_P1;HPM_P2
2022/07/28 00:00:46;;;;;;;2.67;2.07;;;;;;;;;;5033932;28;20209;-75
2022/07/28 00:03:11;;;;;;;2.27;1.83;;;;;;;;;;5034117;28;20183;-74
2022/07/28 00:05:36;;;;;;;2.20;1.67;;;;;;;;;;5019558;28;20189;-74
2022/07/28 00:08:02;;;;;;;1.70;1.60;;;;;;;;;;5024021;28;20187;-74
2022/07/28 00:10:27;;;;;;;1.77;1.60;;;;;;;;;;5031197;28;20190;-74
2022/07/28 00:12:52;;;;;;;1.90;1.70;;;;;;;;;;5013690;28;20187;-74
2022/07/28 00:15:17;;;;;;;3.23;1.83;;;;;;;;;;5028898;28;20178;-74
2022/07/28 00:17:42;;;;;;;4.43;1.50;;;;;;;;;;5034594;28;20269;-74
2022/07/28 00:20:08;;;;;;;2.40;1.70;;;;;;;;;;5055564;28;20241;-74
2022/07/28 00:22:33;;;;;;;1.60;1.50;;;;;;;;;;5031037;28;20208;-74
2022/07/28 00:24:59;;;;;;;2.23;1.57;;;;;;;;;;5032520;28;20181;-74
2022/07/28 00:27:24;;;;;;;1.93;1.57;;;;;;;;;;5052886;28;20182;-75
2022/07/28 00:29:49;;;;;;;3.40;1.80;;;;;;;;;;5031410;28;20197;-74
2022/07/28 00:32:15;;;;;;;2.07;1.77;;;;;;;;;;5035071;28;20261;-74
2022/07/28 00:34:41;;;;;;;3.70;1.80;;;;;;;;;;5033786;28;20204;-74
2022/07/28 00:37:06;;;;;;;3.70;1.90;;;;;;;;;;5027722;28;20446;-74
2022/07/28 00:39:31;;;;;;;4.07;1.70;;;;;;;;;;5053382;28;20213;-74
2022/07/28 00:41:56;;;;;;;1.67;1.50;;;;;;;;;;5033312;28;20343;-74
2022/07/28 00:44:21;;;;;;;2.00;1.80;;;;;;;;;;5035323;28;20180;-74
2022/07/28 00:46:47;;;;;;;3.50;2.43;;;;;;;;;;5035557;28;20185;-74
2022/07/28 00:49:13;;;;;;;3.30;1.57;;;;;;;;;;5034102;28;20189;-74
2022/07/28 00:51:39;;;;;;;1.67;1.50;;;;;;;;;;5049439;28;20182;-74
2022/07/28 00:54:04;;;;;;;1.93;1.80;;;;;;;;;;5033015;28;20223;-74
2022/07/28 00:56:30;;;;;;;4.83;1.70;;;;;;;;;;5027060;28;20181;-74
2022/07/28 00:58:55;;;;;;;2.87;1.80;;;;;;;;;;5036651;28;20199;-74
2022/07/28 01:01:21;;;;;;;2.80;1.70;;;;;;;;;;5050408;28;20169;-74
2022/07/28 01:03:51;;;;;;;2.33;1.80;;;;;;;;;;5050114;28;20256;-74
2022/07/28 01:06:41;;;;;;;3.73;1.87;;;;;;;;;;5052063;28;20189;-74
2022/07/28 01:09:19;;;;;;;1.83;1.43;;;;;;;;;;5041455;28;20213;-74
2022/07/28 01:11:53;;;;;;;4.90;1.90;;;;;;;;;;5033290;28;20182;-74
2022/07/28 01:14:21;;;;;;;1.97;1.80;;;;;;;;;;5033425;28;20180;-74
2022/07/28 01:16:51;;;;;;;2.87;1.60;;;;;;;;;;5054251;28;20268;-74
2022/07/28 01:19:16;;;;;;;3.00;2.00;;;;;;;;;;5021348;28;20244;-74
2022/07/28 01:21:42;;;;;;;1.67;1.40;;;;;;;;;;5016166;28;20181;-74
2022/07/28 01:24:20;;;;;;;2.17;1.97;;;;;;;;;;5027072;28;20178;-74
2022/07/28 01:26:45;;;;;;;3.80;1.70;;;;;;;;;;5011412;28;20264;-74
2022/07/28 01:29:29;;;;;;;2.67;1.70;;;;;;;;;;5032727;28;20272;-74
2022/07/28 01:32:07;;;;;;;1.93;1.57;;;;;;;;;;5010595;28;20185;-74
2022/07/28 01:34:35;;;;;;;3.00;1.70;;;;;;;;;;5031432;28;20182;-74
2022/07/28 01:37:11;;;;;;;2.70;1.50;;;;;;;;;;5013578;28;20186;-74
2022/07/28 01:39:38;;;;;;;1.97;1.73;;;;;;;;;;5025904;28;20226;-74
2022/07/28 01:42:05;;;;;;;1.80;1.67;;;;;;;;;;5006807;28;20186;-74
2022/07/28 01:44:31;;;;;;;2.53;2.30;;;;;;;;;;5024658;28;20243;-74
2022/07/28 01:46:57;;;;;;;2.27;2.10;;;;;;;;;;5033054;28;20176;-74
2022/07/28 01:49:23;;;;;;;3.60;2.10;;;;;;;;;;5027435;28;20270;-74
2022/07/28 01:51:48;;;;;;;2.77;1.80;;;;;;;;;;5030439;28;20287;-74
2022/07/28 01:54:15;;;;;;;2.53;2.33;;;;;;;;;;5013757;28;20181;-74
2022/07/28 01:56:41;;;;;;;2.67;1.73;;;;;;;;;;5029099;28;20183;-74
2022/07/28 01:59:10;;;;;;;2.57;1.50;;;;;;;;;;5012292;28;20203;-74
2022/07/28 02:01:37;;;;;;;2.03;1.80;;;;;;;;;;5020027;28;20203;-74
2022/07/28 02:04:04;;;;;;;2.97;2.13;;;;;;;;;;5018798;28;20188;-74
2022/07/28 02:06:30;;;;;;;5.93;1.70;;;;;;;;;;5010155;28;20187;-73
2022/07/28 02:08:57;;;;;;;3.13;1.53;;;;;;;;;;5032729;28;20186;-74
2022/07/28 02:11:39;;;;;;;6.90;1.57;;;;;;;;;;5014218;28;20252;-73
2022/07/28 02:14:13;;;;;;;3.67;2.53;;;;;;;;;;5027350;28;20180;-74
2022/07/28 02:16:40;;;;;;;3.07;2.30;;;;;;;;;;5014131;28;20216;-74
2022/07/28 02:19:06;;;;;;;3.73;1.67;;;;;;;;;;5024890;28;20236;-74
2022/07/28 02:21:31;;;;;;;2.13;1.83;;;;;;;;;;5034658;28;20177;-74
2022/07/28 02:23:57;;;;;;;2.33;1.60;;;;;;;;;;5053856;28;20180;-74
2022/07/28 02:26:26;;;;;;;2.33;1.60;;;;;;;;;;5035537;28;20207;-74
2022/07/28 02:28:53;;;;;;;6.83;1.77;;;;;;;;;;5043776;28;20189;-74
2022/07/28 02:31:23;;;;;;;1.97;1.57;;;;;;;;;;5051052;28;20264;-74
2022/07/28 02:33:49;;;;;;;2.50;1.67;;;;;;;;;;5046627;28;20179;-74
2022/07/28 02:36:25;;;;;;;2.43;1.50;;;;;;;;;;5036605;28;20186;-74
2022/07/28 02:38:53;;;;;;;1.77;1.60;;;;;;;;;;5039233;28;20198;-74
2022/07/28 02:41:24;;;;;;;2.87;1.70;;;;;;;;;;5049670;28;20185;-74
2022/07/28 02:43:51;;;;;;;6.30;2.03;;;;;;;;;;5038807;28;20183;-74
2022/07/28 02:46:19;;;;;;;1.90;1.57;;;;;;;;;;5036121;28;20303;-74
2022/07/28 02:48:46;;;;;;;1.60;1.50;;;;;;;;;;5050277;28;20203;-74
2022/07/28 02:51:11;;;;;;;2.10;1.80;;;;;;;;;;5052114;28;20179;-74
2022/07/28 02:53:37;;;;;;;3.57;2.20;;;;;;;;;;5038792;28;20191;-74
2022/07/28 02:56:02;;;;;;;2.60;1.57;;;;;;;;;;5050640;28;20214;-74
2022/07/28 02:58:28;;;;;;;3.37;1.83;;;;;;;;;;5059731;28;20172;-74
2022/07/28 03:00:54;;;;;;;2.93;2.07;;;;;;;;;;5033720;28;20200;-74
2022/07/28 03:03:20;;;;;;;3.10;2.07;;;;;;;;;;5034979;28;20190;-74
2022/07/28 03:05:45;;;;;;;2.87;2.03;;;;;;;;;;5030772;28;20293;-74
2022/07/28 03:08:12;;;;;;;3.47;2.23;;;;;;;;;;5035490;28;20276;-74
2022/07/28 03:10:37;;;;;;;2.53;1.83;;;;;;;;;;5050129;28;20175;-74
2022/07/28 03:13:04;;;;;;;2.80;1.80;;;;;;;;;;5037023;28;20453;-74
2022/07/28 03:15:29;;;;;;;4.47;2.90;;;;;;;;;;5052780;28;20228;-74
2022/07/28 03:17:55;;;;;;;2.43;1.80;;;;;;;;;;5051170;28;20276;-74
2022/07/28 03:20:20;;;;;;;3.37;1.73;;;;;;;;;;5033344;28;20231;-74
2022/07/28 03:22:45;;;;;;;3.83;1.83;;;;;;;;;;5048110;28;20179;-73
2022/07/28 03:25:23;;;;;;;4.20;2.13;;;;;;;;;;5037525;28;20179;-74
2022/07/28 03:27:49;;;;;;;2.10;1.80;;;;;;;;;;5045101;28;20181;-74
2022/07/28 03:30:19;;;;;;;3.83;2.30;;;;;;;;;;5034506;28;20178;-74
2022/07/28 03:32:47;;;;;;;6.30;2.77;;;;;;;;;;5033189;28;20203;-74
2022/07/28 03:35:13;;;;;;;4.40;1.40;;;;;;;;;;5050065;28;20179;-73
2022/07/28 03:37:48;;;;;;;1.97;1.80;;;;;;;;;;5046597;28;20447;-74
2022/07/28 03:40:14;;;;;;;3.00;1.90;;;;;;;;;;5052529;28;20213;-74
2022/07/28 03:42:41;;;;;;;3.23;1.90;;;;;;;;;;5034899;28;20201;-74
2022/07/28 03:45:06;;;;;;;4.00;2.40;;;;;;;;;;5041100;28;20179;-74
2022/07/28 03:47:32;;;;;;;2.40;1.97;;;;;;;;;;5050051;28;20232;-73
2022/07/28 03:49:57;;;;;;;2.23;1.93;;;;;;;;;;5052819;28;20179;-74
2022/07/28 03:52:22;;;;;;;3.97;1.80;;;;;;;;;;5058492;28;20196;-74
2022/07/28 03:54:47;;;;;;;4.63;2.20;;;;;;;;;;5048662;28;20476;-73
2022/07/28 03:57:12;;;;;;;3.60;2.03;;;;;;;;;;5034999;28;20182;-73
2022/07/28 03:59:38;;;;;;;3.33;2.20;;;;;;;;;;5035358;28;20240;-74
2022/07/28 04:02:03;;;;;;;4.30;2.23;;;;;;;;;;5035025;28;20206;-74
2022/07/28 04:04:29;;;;;;;2.23;2.03;;;;;;;;;;5036804;28;20212;-74
2022/07/28 04:06:54;;;;;;;2.10;1.90;;;;;;;;;;5027876;28;20206;-74
2022/07/28 04:09:19;;;;;;;3.87;2.10;;;;;;;;;;5031586;28;20182;-73
2022/07/28 04:11:44;;;;;;;2.37;2.17;;;;;;;;;;5049558;28;20486;-74
2022/07/28 04:14:09;;;;;;;7.73;2.50;;;;;;;;;;5049609;28;20173;-74
2022/07/28 04:16:35;;;;;;;9.77;2.30;;;;;;;;;;5047901;28;20179;-74
2022/07/28 04:19:00;;;;;;;3.57;2.13;;;;;;;;;;5046609;28;20222;-74
2022/07/28 04:21:25;;;;;;;3.13;2.20;;;;;;;;;;5034474;28;20279;-74
2022/07/28 04:23:50;;;;;;;3.83;2.00;;;;;;;;;;5031267;28;20175;-74
2022/07/28 04:26:16;;;;;;;2.30;2.10;;;;;;;;;;5052888;28;20177;-73
2022/07/28 04:28:42;;;;;;;6.43;2.60;;;;;;;;;;5032305;28;20202;-74
2022/07/28 04:31:07;;;;;;;4.50;2.50;;;;;;;;;;5029484;28;20181;-74
2022/07/28 04:33:32;;;;;;;4.30;2.40;;;;;;;;;;5024770;28;20192;-74
2022/07/28 04:36:00;;;;;;;4.17;3.37;;;;;;;;;;5035770;28;20187;-74
2022/07/28 04:38:25;;;;;;;3.10;2.20;;;;;;;;;;5024814;28;21193;-74
2022/07/28 04:40:50;;;;;;;3.03;2.33;;;;;;;;;;5047379;28;20237;-74
2022/07/28 04:43:16;;;;;;;4.67;2.40;;;;;;;;;;5030139;28;20224;-74
2022/07/28 04:45:41;;;;;;;5.60;2.70;;;;;;;;;;5035392;28;20186;-74
2022/07/28 04:48:06;;;;;;;5.17;2.90;;;;;;;;;;5049715;28;20185;-74
2022/07/28 04:50:31;;;;;;;7.03;4.10;;;;;;;;;;5032585;28;20296;-74
2022/07/28 04:52:57;;;;;;;8.70;4.30;;;;;;;;;;5025608;28;20208;-73
2022/07/28 04:55:23;;;;;;;5.10;4.53;;;;;;;;;;5047152;28;20184;-74
2022/07/28 04:57:48;;;;;;;7.27;4.23;;;;;;;;;;5045674;28;20182;-74
2022/07/28 05:00:14;;;;;;;3.73;2.73;;;;;;;;;;5044802;28;20204;-74
2022/07/28 05:02:40;;;;;;;3.80;2.70;;;;;;;;;;5042247;28;20242;-76
2022/07/28 05:05:06;;;;;;;8.30;4.27;;;;;;;;;;5030147;28;20278;-76
2022/07/28 05:07:31;;;;;;;5.43;3.10;;;;;;;;;;5051116;28;20253;-76
2022/07/28 05:09:56;;;;;;;3.53;3.13;;;;;;;;;;5044733;28;20183;-76
2022/07/28 05:12:22;;;;;;;4.57;2.40;;;;;;;;;;5031106;28;20181;-76
2022/07/28 05:14:47;;;;;;;5.80;2.37;;;;;;;;;;5024405;28;20186;-76
2022/07/28 05:17:12;;;;;;;3.10;2.80;;;;;;;;;;5030022;28;20188;-76
2022/07/28 05:19:38;;;;;;;4.03;2.80;;;;;;;;;;5027760;28;20225;-76
2022/07/28 05:22:03;;;;;;;2.83;2.50;;;;;;;;;;5028717;28;20177;-76
2022/07/28 05:24:29;;;;;;;3.90;2.50;;;;;;;;;;5035953;28;20177;-76
2022/07/28 05:26:54;;;;;;;4.10;2.73;;;;;;;;;;5027786;28;20186;-76
2022/07/28 05:29:19;;;;;;;2.87;2.43;;;;;;;;;;5031190;28;20193;-76
2022/07/28 05:31:44;;;;;;;3.37;2.50;;;;;;;;;;5028067;28;20193;-75
2022/07/28 05:34:10;;;;;;;5.83;4.07;;;;;;;;;;5034684;28;20186;-76
2022/07/28 05:36:35;;;;;;;3.43;2.63;;;;;;;;;;5033474;28;20189;-76
2022/07/28 05:39:00;;;;;;;3.27;2.53;;;;;;;;;;5028247;28;20292;-76
2022/07/28 05:41:25;;;;;;;2.97;2.77;;;;;;;;;;5031214;28;20186;-76
2022/07/28 05:43:51;;;;;;;3.37;2.30;;;;;;;;;;5030372;28;20205;-76
2022/07/28 05:46:16;;;;;;;5.03;3.47;;;;;;;;;;5030799;28;20181;-76
2022/07/28 05:48:41;;;;;;;4.10;2.90;;;;;;;;;;5030645;28;20188;-76
2022/07/28 05:51:06;;;;;;;4.60;2.50;;;;;;;;;;5046998;28;20170;-76
2022/07/28 05:53:31;;;;;;;5.00;2.60;;;;;;;;;;5033965;28;20170;-76
2022/07/28 05:55:57;;;;;;;4.10;3.00;;;;;;;;;;5030940;28;20205;-76
2022/07/28 05:58:22;;;;;;;3.17;2.87;;;;;;;;;;5033343;28;20216;-76
2022/07/28 06:00:47;;;;;;;2.67;2.47;;;;;;;;;;5023776;28;20206;-76
2022/07/28 06:03:12;;;;;;;3.73;2.90;;;;;;;;;;5031588;28;20193;-77
2022/07/28 06:05:38;;;;;;;3.03;2.83;;;;;;;;;;5046471;28;20177;-76
2022/07/28 06:08:03;;;;;;;4.73;2.70;;;;;;;;;;5024008;28;20181;-76
2022/07/28 06:10:57;;;;;;;4.00;3.17;;;;;;;;;;5031585;28;20179;-76
2022/07/28 06:13:14;;;;;;;2.60;2.40;;;;;;;;;;5054996;28;20577;-76
2022/07/28 06:15:39;;;;;;;3.33;2.67;;;;;;;;;;5054203;28;20185;-77
2022/07/28 06:18:05;;;;;;;3.57;2.80;;;;;;;;;;5052162;28;20206;-77
2022/07/28 06:20:30;;;;;;;3.50;2.40;;;;;;;;;;5047079;28;20211;-76
2022/07/28 06:22:55;;;;;;;2.70;2.50;;;;;;;;;;5042374;28;20175;-76
2022/07/28 06:25:24;;;;;;;6.07;3.80;;;;;;;;;;5033108;28;20174;-76
2022/07/28 06:27:50;;;;;;;3.20;2.90;;;;;;;;;;5032416;28;20180;-76
2022/07/28 06:30:16;;;;;;;8.43;3.50;;;;;;;;;;5035663;28;20177;-76
2022/07/28 06:32:42;;;;;;;3.67;3.20;;;;;;;;;;5040034;28;20189;-76
2022/07/28 06:35:08;;;;;;;4.60;3.30;;;;;;;;;;5048445;28;20178;-76
2022/07/28 06:37:33;;;;;;;4.87;4.07;;;;;;;;;;5054814;28;20180;-77
2022/07/28 06:39:59;;;;;;;4.23;3.30;;;;;;;;;;5038777;28;20267;-76
2022/07/28 06:42:26;;;;;;;3.90;3.50;;;;;;;;;;5030098;28;20244;-77
2022/07/28 06:44:52;;;;;;;6.40;3.83;;;;;;;;;;5034152;28;20185;-76
2022/07/28 06:47:17;;;;;;;4.40;3.90;;;;;;;;;;5033954;28;20169;-76
2022/07/28 06:49:43;;;;;;;8.53;3.67;;;;;;;;;;5033302;28;20243;-77
2022/07/28 06:52:08;;;;;;;4.63;4.13;;;;;;;;;;5042254;28;20183;-76
2022/07/28 06:54:33;;;;;;;4.13;3.73;;;;;;;;;;5032131;28;20212;-76
2022/07/28 06:56:59;;;;;;;5.77;4.27;;;;;;;;;;5034808;28;20244;-76
2022/07/28 06:59:24;;;;;;;4.30;3.63;;;;;;;;;;5037464;28;20263;-76
2022/07/28 07:01:50;;;;;;;6.03;3.50;;;;;;;;;;5051421;28;20245;-76
2022/07/28 07:04:15;;;;;;;5.83;4.23;;;;;;;;;;5049576;28;20177;-76
2022/07/28 07:06:40;;;;;;;4.00;3.60;;;;;;;;;;5049951;28;20180;-76
2022/07/28 07:09:06;;;;;;;8.53;4.43;;;;;;;;;;5051912;28;20185;-76
2022/07/28 07:11:31;;;;;;;4.20;3.80;;;;;;;;;;5037887;28;20456;-76
2022/07/28 07:13:56;;;;;;;4.63;4.23;;;;;;;;;;5055558;28;20177;-76
2022/07/28 07:16:21;;;;;;;4.83;4.10;;;;;;;;;;5035029;28;20193;-76
2022/07/28 07:18:49;;;;;;;7.97;4.10;;;;;;;;;;5028012;28;20243;-76
2022/07/28 07:21:14;;;;;;;5.00;3.73;;;;;;;;;;5008128;28;20217;-76
2022/07/28 07:23:40;;;;;;;3.53;3.27;;;;;;;;;;5007742;28;20209;-77
2022/07/28 07:26:05;;;;;;;5.20;4.53;;;;;;;;;;5007438;28;20194;-77
2022/07/28 07:28:30;;;;;;;4.60;4.30;;;;;;;;;;5014992;28;20175;-77
2022/07/28 07:30:56;;;;;;;4.90;4.40;;;;;;;;;;5030372;28;20179;-76
2022/07/28 07:33:21;;;;;;;7.37;4.60;;;;;;;;;;5010193;28;20182;-77
2022/07/28 07:35:46;;;;;;;4.83;4.13;;;;;;;;;;5012399;28;20193;-77
2022/07/28 07:38:11;;;;;;;5.60;4.50;;;;;;;;;;5010215;28;20189;-77
2022/07/28 07:40:37;;;;;;;5.90;5.40;;;;;;;;;;5008819;28;20218;-77
2022/07/28 07:43:02;;;;;;;5.67;5.17;;;;;;;;;;5012926;28;20182;-76
2022/07/28 07:45:27;;;;;;;6.73;5.57;;;;;;;;;;5033934;28;20678;-76
2022/07/28 07:47:53;;;;;;;5.77;5.27;;;;;;;;;;5007853;28;20180;-77
2022/07/28 07:50:18;;;;;;;6.53;5.87;;;;;;;;;;5008056;28;20196;-77
2022/07/28 07:52:43;;;;;;;6.00;5.40;;;;;;;;;;5011642;28;20192;-77
2022/07/28 07:55:08;;;;;;;7.53;6.50;;;;;;;;;;5013710;28;20200;-76
2022/07/28 07:57:33;;;;;;;7.17;6.37;;;;;;;;;;5029166;28;20187;-76
2022/07/28 07:59:59;;;;;;;7.50;5.80;;;;;;;;;;5013486;28;20249;-77
2022/07/28 08:02:24;;;;;;;7.03;6.43;;;;;;;;;;5025611;28;20187;-77
2022/07/28 08:04:49;;;;;;;6.97;6.23;;;;;;;;;;5009179;28;20188;-76
2022/07/28 08:07:14;;;;;;;6.03;5.47;;;;;;;;;;5013415;28;20202;-76
2022/07/28 08:09:39;;;;;;;6.67;6.07;;;;;;;;;;5006882;28;20175;-77
2022/07/28 08:12:05;;;;;;;6.57;5.97;;;;;;;;;;5020823;28;20191;-76
2022/07/28 08:14:30;;;;;;;5.80;5.20;;;;;;;;;;5017497;28;20185;-76
2022/07/28 08:16:57;;;;;;;6.30;5.60;;;;;;;;;;5012964;28;20270;-76
2022/07/28 08:19:23;;;;;;;6.13;5.60;;;;;;;;;;5020650;28;20240;-77
2022/07/28 08:21:48;;;;;;;5.93;5.33;;;;;;;;;;5051640;28;20185;-77
2022/07/28 08:24:14;;;;;;;6.13;5.30;;;;;;;;;;5043896;28;20198;-77
2022/07/28 08:26:39;;;;;;;6.73;5.07;;;;;;;;;;5033998;28;20171;-77
2022/07/28 08:29:04;;;;;;;7.73;5.93;;;;;;;;;;5052084;28;20185;-76
2022/07/28 08:31:30;;;;;;;5.30;4.80;;;;;;;;;;5047563;28;20182;-77
2022/07/28 08:33:57;;;;;;;5.50;5.00;;;;;;;;;;5027381;28;20183;-77
2022/07/28 08:36:22;;;;;;;5.43;4.87;;;;;;;;;;5031534;28;20240;-77
2022/07/28 08:38:47;;;;;;;4.95;4.50;;;;;;;;;;5035478;28;20183;-77
2022/07/28 08:41:17;;;;;;;5.80;5.20;;;;;;;;;;5044601;28;20182;-77
2022/07/28 08:43:43;;;;;;;5.67;4.93;;;;;;;;;;5033556;28;20266;-77
2022/07/28 08:46:08;;;;;;;5.83;5.23;;;;;;;;;;5048031;28;20310;-77
2022/07/28 08:48:37;;;;;;;6.03;4.97;;;;;;;;;;5033317;28;20189;-76
2022/07/28 08:51:06;;;;;;;6.17;5.57;;;;;;;;;;5049356;28;20210;-77
2022/07/28 08:53:33;;;;;;;8.07;5.53;;;;;;;;;;5034838;28;20268;-77
2022/07/28 08:56:03;;;;;;;5.80;4.87;;;;;;;;;;5052123;28;20226;-77
2022/07/28 08:58:30;;;;;;;4.50;4.10;;;;;;;;;;5028011;28;20196;-77
2022/07/28 09:00:55;;;;;;;5.43;4.93;;;;;;;;;;5031509;28;20205;-77
2022/07/28 09:03:21;;;;;;;9.30;5.77;;;;;;;;;;5050792;28;20655;-76
2022/07/28 09:05:48;;;;;;;6.30;4.60;;;;;;;;;;5028925;28;20184;-77
2022/07/28 09:08:16;;;;;;;5.67;5.20;;;;;;;;;;5032241;28;20184;-77
2022/07/28 09:10:41;;;;;;;9.03;5.40;;;;;;;;;;5035275;28;20187;-76
2022/07/28 09:13:06;;;;;;;6.00;5.07;;;;;;;;;;5028346;28;20181;-77
2022/07/28 09:15:32;;;;;;;6.07;4.77;;;;;;;;;;5051145;28;20185;-77
2022/07/28 09:17:57;;;;;;;5.63;5.13;;;;;;;;;;5048387;28;20205;-76
2022/07/28 09:20:22;;;;;;;5.90;5.10;;;;;;;;;;5028671;28;20241;-77
2022/07/28 09:22:58;;;;;;;5.20;4.80;;;;;;;;;;5047411;28;20215;-77
2022/07/28 09:25:24;;;;;;;5.40;4.90;;;;;;;;;;5028803;28;20183;-76
2022/07/28 09:27:50;;;;;;;5.30;4.80;;;;;;;;;;5032868;28;20182;-77
2022/07/28 09:30:25;;;;;;;6.25;5.60;;;;;;;;;;5032490;28;20186;-77
2022/07/28 09:32:50;;;;;;;7.57;5.93;;;;;;;;;;5048308;28;20377;-77
2022/07/28 09:35:19;;;;;;;6.10;4.95;;;;;;;;;;5031117;28;20573;-76
2022/07/28 09:37:44;;;;;;;6.90;4.97;;;;;;;;;;5052461;28;20185;-77
2022/07/28 09:40:10;;;;;;;9.65;5.70;;;;;;;;;;5050279;28;20200;-77
2022/07/28 09:42:45;;;;;;;5.60;5.07;;;;;;;;;;5048168;28;20197;-77
2022/07/28 09:45:10;;;;;;;5.78;5.03;;;;;;;;;;5023733;28;20178;-77
2022/07/28 09:47:39;;;;;;;6.82;4.85;;;;;;;;;;5037344;28;20178;-77
2022/07/28 09:50:04;;;;;;;7.75;5.30;;;;;;;;;;5050817;28;20451;-77
2022/07/28 09:52:33;;;;;;;6.22;5.65;;;;;;;;;;5033287;28;20182;-77
2022/07/28 09:54:59;;;;;;;6.60;4.93;;;;;;;;;;5034786;28;20189;-77
2022/07/28 09:57:28;;;;;;;5.10;4.70;;;;;;;;;;5030853;28;20589;-77
2022/07/28 09:59:53;;;;;;;5.53;5.03;;;;;;;;;;5030495;28;20209;-77
2022/07/28 10:02:26;;;;;;;6.15;5.55;;;;;;;;;;5033490;28;20189;-77
2022/07/28 10:04:52;;;;;;;5.47;4.93;;;;;;;;;;5052953;28;20193;-77
2022/07/28 10:07:17;;;;;;;7.15;4.78;;;;;;;;;;5045527;28;20170;-77
2022/07/28 10:09:53;;;;;;;6.25;5.65;;;;;;;;;;5041275;28;20174;-77
2022/07/28 10:12:20;;;;;;;7.00;6.13;;;;;;;;;;5029698;28;20191;-77
2022/07/28 10:14:50;;;;;;;6.47;5.60;;;;;;;;;;5034542;28;20433;-77
2022/07/28 10:17:27;;;;;;;5.25;4.75;;;;;;;;;;5049876;28;20175;-77
2022/07/28 10:19:53;;;;;;;7.70;5.00;;;;;;;;;;5022208;28;20250;-77
2022/07/28 10:22:20;;;;;;;9.82;5.85;;;;;;;;;;4992076;28;20175;-77
2022/07/28 10:24:48;;;;;;;5.20;4.70;;;;;;;;;;5009266;28;20188;-77
2022/07/28 10:27:14;;;;;;;6.40;5.32;;;;;;;;;;5014830;28;20175;-77
2022/07/28 10:29:42;;;;;;;11.70;5.40;;;;;;;;;;5006307;28;20221;-77
2022/07/28 10:32:07;;;;;;;7.28;5.18;;;;;;;;;;5019715;28;20195;-78
2022/07/28 10:34:33;;;;;;;6.82;5.65;;;;;;;;;;5011935;28;20195;-78
2022/07/28 10:37:00;;;;;;;6.20;5.60;;;;;;;;;;5014872;28;20246;-77
2022/07/28 10:39:28;;;;;;;5.57;5.00;;;;;;;;;;5014814;28;20214;-77
2022/07/28 10:41:53;;;;;;;9.20;5.20;;;;;;;;;;5014684;28;20190;-77
2022/07/28 10:44:18;;;;;;;7.53;5.60;;;;;;;;;;5015216;28;20179;-77
2022/07/28 10:46:44;;;;;;;6.15;5.57;;;;;;;;;;5023678;28;21934;-77
2022/07/28 10:49:10;;;;;;;6.03;5.38;;;;;;;;;;5007146;28;20199;-77
2022/07/28 10:51:36;;;;;;;7.00;5.32;;;;;;;;;;5008158;28;20179;-77
2022/07/28 10:54:02;;;;;;;5.43;4.53;;;;;;;;;;5013463;28;20187;-77
2022/07/28 10:56:34;;;;;;;6.27;5.70;;;;;;;;;;5027191;28;20239;-78
2022/07/28 10:59:05;;;;;;;7.88;5.45;;;;;;;;;;4995249;28;20455;-77
2022/07/28 11:01:35;;;;;;;8.20;4.97;;;;;;;;;;5005388;28;20171;-78
2022/07/28 11:04:00;;;;;;;8.98;7.10;;;;;;;;;;5023424;28;20193;-78
2022/07/28 11:06:29;;;;;;;6.47;5.35;;;;;;;;;;4998482;28;20179;-78
2022/07/28 11:08:59;;;;;;;5.75;5.18;;;;;;;;;;5002892;28;20180;-77
2022/07/28 11:12:01;;;;;;;5.70;5.07;;;;;;;;;;5011990;28;20455;-78
2022/07/28 11:14:36;;;;;;;7.75;5.25;;;;;;;;;;4928914;29;20178;-77
2022/07/28 11:17:04;;;;;;;9.63;5.05;;;;;;;;;;4932795;29;20194;-78
2022/07/28 11:19:44;;;;;;;9.48;5.22;;;;;;;;;;4932201;29;20229;-78
2022/07/28 11:22:17;;;;;;;5.78;5.03;;;;;;;;;;4944257;28;20193;-77
2022/07/28 11:25:00;;;;;;;6.65;5.00;;;;;;;;;;4951032;28;20216;-78
2022/07/28 11:27:41;;;;;;;5.32;4.82;;;;;;;;;;4952778;28;20193;-77
2022/07/28 11:30:09;;;;;;;5.20;4.70;;;;;;;;;;4948867;28;20190;-77
2022/07/28 11:32:47;;;;;;;6.22;4.93;;;;;;;;;;4951840;28;20182;-77
2022/07/28 11:35:12;;;;;;;5.78;5.20;;;;;;;;;;4951111;28;20189;-78
2022/07/28 11:37:57;;;;;;;5.47;4.93;;;;;;;;;;4950060;28;20181;-77
2022/07/28 11:40:38;;;;;;;5.55;5.05;;;;;;;;;;4953564;28;20212;-78
2022/07/28 11:43:30;;;;;;;5.38;4.88;;;;;;;;;;4936261;29;20537;-78
2022/07/28 11:46:01;;;;;;;4.88;4.57;;;;;;;;;;4952171;28;20189;-77
2022/07/28 11:48:29;;;;;;;6.68;5.00;;;;;;;;;;4977980;28;20198;-78
2022/07/28 11:51:04;;;;;;;6.20;5.70;;;;;;;;;;5032035;28;20221;-77
2022/07/28 11:53:38;;;;;;;5.40;4.90;;;;;;;;;;5038799;28;20178;-77
2022/07/28 11:56:09;;;;;;;4.70;4.30;;;;;;;;;;5023360;28;20264;-78
2022/07/28 11:58:35;;;;;;;5.68;5.07;;;;;;;;;;5027842;28;20178;-78
2022/07/28 12:01:13;;;;;;;4.90;4.60;;;;;;;;;;5048483;28;20206;-78
2022/07/28 12:03:40;;;;;;;5.43;4.28;;;;;;;;;;5042259;28;20185;-78
2022/07/28 12:06:09;;;;;;;5.05;4.57;;;;;;;;;;5026818;28;20282;-78
2022/07/28 12:08:50;;;;;;;5.72;5.05;;;;;;;;;;5022307;28;20189;-78
2022/07/28 12:11:15;;;;;;;5.50;5.03;;;;;;;;;;5040787;28;20186;-77
2022/07/28 12:13:40;;;;;;;6.28;5.25;;;;;;;;;;5024425;28;20190;-78
2022/07/28 12:16:05;;;;;;;5.10;4.68;;;;;;;;;;5030368;28;20189;-78
2022/07/28 12:18:31;;;;;;;5.22;4.72;;;;;;;;;;5039366;28;20218;-78
2022/07/28 12:20:56;;;;;;;6.25;5.32;;;;;;;;;;5027975;28;20475;-78
2022/07/28 12:23:27;;;;;;;15.38;4.95;;;;;;;;;;5009276;28;20179;-78
2022/07/28 12:25:53;;;;;;;6.45;4.90;;;;;;;;;;5014859;28;20175;-78
2022/07/28 12:28:19;;;;;;;7.25;4.90;;;;;;;;;;5010523;28;20233;-78
2022/07/28 12:30:45;;;;;;;5.82;4.38;;;;;;;;;;5014717;28;20179;-78
2022/07/28 12:33:23;;;;;;;5.50;4.22;;;;;;;;;;5011323;28;20186;-78
2022/07/28 12:35:51;;;;;;;5.63;4.57;;;;;;;;;;5031758;28;20186;-78
2022/07/28 12:38:19;;;;;;;6.60;4.75;;;;;;;;;;5007049;28;20186;-77
2022/07/28 12:40:45;;;;;;;6.00;5.28;;;;;;;;;;5026407;28;20205;-78
2022/07/28 12:43:11;;;;;;;4.95;4.50;;;;;;;;;;5008832;28;20186;-78
2022/07/28 12:45:54;;;;;;;6.28;4.90;;;;;;;;;;5006868;28;20167;-78
2022/07/28 12:48:19;;;;;;;7.47;4.93;;;;;;;;;;5016170;28;20729;-77
2022/07/28 12:50:45;;;;;;;5.13;4.40;;;;;;;;;;5030189;28;20246;-78
2022/07/28 12:53:11;;;;;;;5.18;4.53;;;;;;;;;;5010553;28;20181;-78
2022/07/28 12:55:42;;;;;;;16.27;14.57;;;;;;;;;;5009906;28;20237;-78
2022/07/28 12:58:19;;;;;;;6.82;4.50;;;;;;;;;;5025903;28;20205;-78
2022/07/28 13:00:48;;;;;;;6.22;4.20;;;;;;;;;;5007661;28;20237;-77
2022/07/28 13:03:19;;;;;;;5.30;4.30;;;;;;;;;;5016744;28;20175;-78
2022/07/28 13:06:03;;;;;;;4.82;4.38;;;;;;;;;;5017976;28;20179;-78
2022/07/28 13:08:39;;;;;;;6.80;5.03;;;;;;;;;;5006774;28;20182;-78
2022/07/28 13:11:05;;;;;;;6.43;4.55;;;;;;;;;;5010278;28;20283;-78
2022/07/28 13:13:43;;;;;;;5.22;4.80;;;;;;;;;;5030391;28;20182;-78
2022/07/28 13:16:11;;;;;;;6.55;4.40;;;;;;;;;;5026362;28;20187;-78
2022/07/28 13:18:37;;;;;;;5.07;4.65;;;;;;;;;;5012833;28;20227;-78
2022/07/28 13:21:02;;;;;;;6.32;5.72;;;;;;;;;;5029348;28;20207;-77
2022/07/28 13:23:27;;;;;;;4.70;4.18;;;;;;;;;;5011859;28;20175;-78
2022/07/28 13:25:53;;;;;;;5.95;4.35;;;;;;;;;;5012946;28;20183;-78
2022/07/28 13:28:22;;;;;;;5.15;4.40;;;;;;;;;;5008165;28;20174;-78
2022/07/28 13:30:47;;;;;;;7.32;4.00;;;;;;;;;;5014215;28;20214;-78
2022/07/28 13:33:13;;;;;;;4.60;4.20;;;;;;;;;;5005934;28;20214;-78
2022/07/28 13:35:38;;;;;;;4.70;4.20;;;;;;;;;;5024941;28;20190;-78
2022/07/28 13:38:03;;;;;;;4.85;4.30;;;;;;;;;;5027778;28;20174;-77
2022/07/28 13:40:28;;;;;;;4.35;3.95;;;;;;;;;;5024683;28;20297;-75
2022/07/28 13:42:53;;;;;;;4.15;3.75;;;;;;;;;;5011920;28;20209;-75
2022/07/28 13:45:19;;;;;;;4.60;4.20;;;;;;;;;;5026071;28;20294;-75
2022/07/28 13:47:44;;;;;;;4.43;4.03;;;;;;;;;;5028793;28;20191;-75
2022/07/28 13:50:09;;;;;;;6.18;3.65;;;;;;;;;;5005317;28;20183;-74
2022/07/28 13:52:35;;;;;;;4.65;3.80;;;;;;;;;;5009181;28;20183;-74
2022/07/28 13:55:01;;;;;;;5.95;4.43;;;;;;;;;;5006633;28;20186;-74
2022/07/28 13:57:27;;;;;;;4.25;3.55;;;;;;;;;;5004923;28;20187;-75
2022/07/28 13:59:52;;;;;;;4.28;3.97;;;;;;;;;;5007926;28;20306;-75
2022/07/28 14:02:17;;;;;;;4.40;4.00;;;;;;;;;;5026407;28;20175;-74
2022/07/28 14:04:43;;;;;;;6.65;4.35;;;;;;;;;;5012745;28;20204;-75
2022/07/28 14:07:08;;;;;;;3.67;3.42;;;;;;;;;;5029047;28;20297;-75
2022/07/28 14:09:33;;;;;;;4.43;4.13;;;;;;;;;;5012719;28;20588;-75
2022/07/28 14:12:02;;;;;;;7.00;4.10;;;;;;;;;;5014533;28;20214;-75
2022/07/28 14:14:27;;;;;;;4.70;4.25;;;;;;;;;;5032601;28;20182;-75
2022/07/28 14:16:52;;;;;;;4.78;4.07;;;;;;;;;;5016165;28;20190;-74
2022/07/28 14:19:17;;;;;;;4.22;3.90;;;;;;;;;;5014355;28;20230;-74
2022/07/28 14:21:43;;;;;;;4.15;3.65;;;;;;;;;;5029709;28;20179;-75
2022/07/28 14:24:09;;;;;;;5.10;4.03;;;;;;;;;;5034232;28;20217;-75
2022/07/28 14:26:34;;;;;;;4.22;3.90;;;;;;;;;;5024074;28;20531;-74
2022/07/28 14:28:59;;;;;;;4.80;3.95;;;;;;;;;;5016365;28;20175;-75
2022/07/28 14:31:24;;;;;;;13.00;4.43;;;;;;;;;;5011789;28;21325;-75
2022/07/28 14:33:49;;;;;;;4.60;4.15;;;;;;;;;;5027679;28;20201;-74
2022/07/28 14:36:16;;;;;;;4.43;4.10;;;;;;;;;;5027429;28;20232;-74
2022/07/28 14:38:41;;;;;;;4.30;3.90;;;;;;;;;;5013668;28;20186;-75
2022/07/28 14:41:06;;;;;;;6.63;4.22;;;;;;;;;;5012467;28;20199;-75
2022/07/28 14:43:32;;;;;;;4.60;4.20;;;;;;;;;;5010979;28;20249;-75